Historyczne dane pomiarowe

Dodano dane terminowe – wersja testowa.

Dane z okresu 1951-2019

Wersja bazy: 1.34 [2019-03-16, lista zmian], aktualizacja planowana na 2019-04-15

Dane meteo z obszaru Polski uzyskane na podstawie danych udostępnionych przez Instytut Meteorologii i Gospodarki Wodnej – Państwowy Instytut Badawczy.

 

Wybierz Datę:    

       

TemperaturaWilgotnośćWiatrCiśnienieOpadyŚniegCzas trwania zjawisk
 Stacja t tx tn tng RH VA  wxwx mslp ppp RRR   cm mm wxwxwxwxwxwxwx
2019-10-31 0.2 6.7 -3.4 -5.3 88.8 5.4- 0.6--1029.2 991.9 0.0 0.0 0.0x- 6.1-------
2019-10-30 3.8 7.5 0.6 -1.9 83.8 6.7- 0.9--1029.1 992.3 0.0 0.0 0.0x- 4.7-------
2019-10-29 4.8 9.4 1.4 -0.8 89.8 7.7- 1.1--1022.7 986.3 2.4 0.1 2.3x- 3.3-------
2019-10-28 6.4 13.3 3.7 0.6 90.4 8.7- 1.0--1020.7 984.5 1.7 1.7 0.0x- 1.5-------
2019-10-27 12.9 24.6 5.1 2.4 71.9 9.9- 1.8--1017.9 982.7 0.9 0.0 0.9x- 9.4-------
2019-10-26 10.8 21.4 4.2 2.3 84.4 10.6- 0.8--1023.0 987.3 0.0 0.0 0.0x- 7.1-------
2019-10-25 11.8 21.4 4.7 1.6 76.6 10.3- 0.6--1021.0 985.5 0.0 0.0 0.0x- 9.0-------
2019-10-24 15.3 26.7 5.8 3.2 66.1 10.3- 1.3--1016.0 981.1 0.0 0.0 0.0x- 9.5-------
2019-10-23 13.0 22.3 7.5 5.4 87.6 13.1- 0.8--1021.8 986.5 0.0 0.0 0.0x- 6.3-------
2019-10-22 13.3 22.6 6.4 4.1 83.4 12.6- 0.6--1023.7 988.3 0.0 0.0 0.0x- 9.6-------
2019-10-21 14.8 24.2 7.5 5.0 76.0 12.3- 1.0--1019.6 984.6 0.0 0.0 0.0x- 9.4-------
2019-10-20 14.6 22.9 5.8 3.4 71.5 11.4- 1.6--1016.5 981.5 0.0 0.0 0.0x- 9.6-------
2019-10-19 12.7 21.2 5.6 2.9 77.1 11.0- 1.1--1015.7 980.5 0.0 0.0 0.0x- 9.0-------
2019-10-18 12.1 22.3 4.8 2.4 77.1 10.4- 0.8--1016.6 981.3 0.0 0.0 0.0x- 9.7-------
2019-10-17 11.7 21.6 5.0 2.4 77.0 9.9- 0.8--1019.5 984.0 0.0 0.0 0.0x- 9.8-------
2019-10-16 17.4 24.5 12.0 9.5 62.8 12.2- 1.9--1013.5 978.9 0.0 0.0 0.0x- 6.0-------
2019-10-15 17.3 25.1 8.2 5.6 64.0 11.6- 2.4--1013.9 979.3 0.0 0.0 0.0x- 9.6-------
2019-10-14 15.0 23.6 8.5 6.9 78.3 13.0- 1.3--1019.7 984.6 0.0 0.0 0.0x- 10.0-------
2019-10-13 13.7 23.2 6.6 4.8 74.8 11.4- 1.3--1020.6 985.4 0.0 0.0 0.0x- 10.0-------
2019-10-12 13.9 23.4 7.1 3.8 66.0 10.0- 2.3--1018.6 983.4 0.0 0.0 0.0x- 10.1-------
2019-10-11 10.1 16.4 4.2 2.0 76.4 9.1- 2.0--1021.4 985.7 0.0 0.0 0.0x- 9.0-------
2019-10-10 11.6 15.4 8.8 7.0 75.6 10.0- 2.3--1014.0 978.7 1.2 1.2 0.0x- 6.2-------
2019-10-09 10.6 12.9 8.8 7.2 80.1 10.2- 1.1--1012.6 977.2 5.7 0.1 5.6x- 0.0-------
2019-10-08 5.7 13.0 -2.5 -4.3 66.1 5.8- 1.9--1018.1 982.0 3.3 0.1 3.2x- 6.9-------
2019-10-07 2.7 9.2 -0.7 -1.5 79.0 5.6- 0.8--1021.2 984.5 0.0 0.0 0.0x- 6.5-------
2019-10-06 5.6 8.5 4.0 1.9 85.9 7.8- 1.9--1018.0 981.8 1.5 1.5 0.0x- 0.5-------
2019-10-05 8.3 10.8 6.5 5.1 84.4 9.2- 1.3--1009.2 973.7 6.2 2.5 3.7x- 0.0-------
2019-10-04 8.7 11.8 6.0 5.1 77.4 8.6- 0.9--1013.8 978.2 1.1 0.0 1.1x- 2.0-------
2019-10-03 8.8 14.1 6.9 6.7 79.9 9.0- 1.5--1012.6 977.1 1.4 1.3 0.1x- 2.6-------
2019-10-02 16.3 24.3 11.7 8.0 69.4 12.6- 1.6--1004.0 969.7 33.3 12.3 21.0x- 7.0-------
2019-10-01 15.8 22.2 9.8 6.5 55.3 9.6- 2.3--1009.9 975.3 0.0 0.0 0.0x- 11.0-------
2019-09-30 17.6 21.9 11.8 9.5 52.8 10.5- 5.4--1003.5 969.3 1.8 1.8 0.0x- 4.5-------
2019-09-29 14.9 20.6 10.1 8.0 65.9 10.8- 2.8--1011.8 977.0 0.0 0.0 0.0x- 9.3-------
2019-09-28 15.2 19.8 12.7 10.3 72.3 12.3- 1.4--1015.0 980.1 0.0 0.0 0.0x- 2.8-------
2019-09-27 15.4 22.6 8.8 6.7 73.1 12.3- 0.8--1015.5 980.6 0.0 0.0 0.0x- 8.3-------
2019-09-26 14.2 19.6 8.7 7.6 76.4 12.1- 0.9--1012.5 977.6 0.0 0.0 0.0x- 7.4-------
2019-09-25 12.9 18.5 7.8 6.5 86.4 12.8- 0.6--1010.4 975.4 0.6 0.6 0.0x- 1.1-------
2019-09-24 11.3 17.2 6.3 4.8 83.6 11.1- 1.1--1015.5 980.2 1.3 0.0 1.3x- 5.7-------
2019-09-23 10.6 17.9 4.8 3.5 79.5 10.0- 0.6--1016.4 980.9 0.0 0.0 0.0x- 4.8-------
2019-09-22 12.2 22.3 4.1 2.7 70.9 9.5- 0.8--1019.6 984.2 0.0 0.0 0.0x- 11.7-------
2019-09-21 11.4 18.5 5.9 4.3 70.8 9.1- 1.5--1025.8 990.1 0.0 0.0 0.0x- 11.6-------
2019-09-20 8.3 13.3 3.8 2.8 79.1 8.5- 1.4--1027.5 991.3 0.8 0.8 0.0x- 5.2-------
2019-09-19 8.0 14.0 3.7 2.1 76.5 8.0- 1.5--1025.0 988.9 4.6 1.9 2.7x- 4.7-------
2019-09-18 9.8 14.3 8.6 5.5 61.9 7.4- 3.9--1019.3 983.6 0.0 0.0 0.0x- 5.1-------
2019-09-17 12.6 17.4 10.6 10.7 78.4 11.3- 2.0--1013.7 978.6 0.7 0.2 0.5x- 4.0-------
2019-09-16 15.2 23.5 8.9 7.9 70.5 11.8- 1.4--1017.2 982.2 2.2 0.0 2.2x- 7.0-------
2019-09-15 13.0 23.2 4.3 3.7 66.9 9.2- 1.3--1025.1 989.6 0.0 0.0 0.0x- 11.7-------
2019-09-14 14.1 18.2 12.2 10.2 65.8 10.4- 1.8--1031.7 996.1 0.0 0.0 0.0x- 8.7-------
2019-09-13 16.9 24.2 10.1 8.6 73.3 13.7- 1.3--1028.7 993.6 0.0 0.0 0.0x- 10.4-------
2019-09-12 16.0 24.1 9.3 7.7 75.8 13.3- 1.0--1028.2 993.0 0.0 0.0 0.0x- 12.1-------
2019-09-11 15.4 23.3 8.7 8.0 75.6 12.8- 1.0--1024.5 989.4 0.0 0.0 0.0x- 11.4-------
2019-09-10 14.7 22.1 8.9 7.7 73.9 11.9- 1.1--1019.4 984.4 0.0 0.0 0.0x- 10.7-------
2019-09-09 16.2 21.9 13.1 12.3 79.3 14.3- 2.1--1013.2 978.5 17.7 15.6 2.1x- 2.3-------
2019-09-08 18.5 24.3 14.7 14.6 75.4 15.5- 1.3--1016.8 982.3 0.1 0.1 0.0x- 9.4-------
2019-09-07 15.9 22.5 10.5 9.9 77.3 14.0- 1.0--1018.1 983.2 11.3 0.0 11.3x- 3.3-------
2019-09-06 16.6 20.9 13.7 12.7 66.3 12.1- 1.4--1022.1 987.2 0.0 0.0 0.0x- 8.2-------
2019-09-05 16.1 25.3 8.0 6.9 72.9 12.7- 0.8--1016.2 981.4 0.0 0.0 0.0x- 12.3-------
2019-09-04 14.4 22.6 7.6 7.0 73.0 11.3- 0.9--1021.3 986.1 0.0 0.0 0.0x- 12.6-------
2019-09-03 13.0 17.2 12.1 11.9 88.0 13.2- 1.0--1023.6 988.2 4.6 4.6 0.0x- 0.2-------
2019-09-02 18.8 22.7 16.6 16.1 80.9 17.5- 1.3--1016.4 981.9 3.5 1.0 2.5x- 2.2-------
51.1 ms

 

Źródłem pochodzenia danych jest Instytut Meteorologii i Gospodarki Wodnej – Państwowy Instytut Badawczy. Dane Instytutu Meteorologii i Gospodarki Wodnej – Państwowego Instytutu Badawczego zostały przetworzone.

Dane źródłowe można odnaleźć na stronie https://dane.imgw.pl